Map

Track Data

SID SEASON NUMBER BASIN SUBBASIN NAME ISO_TIME NATURE LAT LON WMO_WIND WMO_PRES WMO_AGENCY TRACK_TYPE DIST2LAND LANDFALL IFLAG USA_AGENCY USA_ATCF_ID USA_LAT USA_LON USA_RECORD USA_STATUS USA_WIND USA_PRES USA_SSHS USA_R34_NE USA_R34_SE USA_R34_SW USA_R34_NW USA_R50_NE USA_R50_SE USA_R50_SW USA_R50_NW USA_R64_NE USA_R64_SE USA_R64_SW USA_R64_NW USA_POCI USA_ROCI USA_RMW USA_EYE TOKYO_LAT TOKYO_LON TOKYO_GRADE TOKYO_WIND TOKYO_PRES TOKYO_R50_DIR TOKYO_R50_LONG TOKYO_R50_SHORT TOKYO_R30_DIR TOKYO_R30_LONG TOKYO_R30_SHORT TOKYO_LAND CMA_LAT CMA_LON CMA_CAT CMA_WIND CMA_PRES HKO_LAT HKO_LON HKO_CAT HKO_WIND HKO_PRES NEWDELHI_LAT NEWDELHI_LON NEWDELHI_GRADE NEWDELHI_WIND NEWDELHI_PRES NEWDELHI_CI NEWDELHI_DP NEWDELHI_POCI REUNION_LAT REUNION_LON REUNION_TYPE REUNION_WIND REUNION_PRES REUNION_TNUM REUNION_CI REUNION_RMW REUNION_R34_NE REUNION_R34_SE REUNION_R34_SW REUNION_R34_NW REUNION_R50_NE REUNION_R50_SE REUNION_R50_SW REUNION_R50_NW REUNION_R64_NE REUNION_R64_SE REUNION_R64_SW REUNION_R64_NW BOM_LAT BOM_LON BOM_TYPE BOM_WIND BOM_PRES BOM_TNUM BOM_CI BOM_RMW BOM_R34_NE BOM_R34_SE BOM_R34_SW BOM_R34_NW BOM_R50_NE BOM_R50_SE BOM_R50_SW BOM_R50_NW BOM_R64_NE BOM_R64_SE BOM_R64_SW BOM_R64_NW BOM_ROCI BOM_POCI BOM_EYE BOM_POS_METHOD BOM_PRES_METHOD NADI_LAT NADI_LON NADI_CAT NADI_WIND NADI_PRES WELLINGTON_LAT WELLINGTON_LON WELLINGTON_WIND WELLINGTON_PRES DS824_LAT DS824_LON DS824_STAGE DS824_WIND DS824_PRES TD9636_LAT TD9636_LON TD9636_STAGE TD9636_WIND TD9636_PRES TD9635_LAT TD9635_LON TD9635_WIND TD9635_PRES TD9635_ROCI NEUMANN_LAT NEUMANN_LON NEUMANN_CLASS NEUMANN_WIND NEUMANN_PRES MLC_LAT MLC_LON MLC_CLASS MLC_WIND MLC_PRES USA_GUST BOM_GUST BOM_GUST_PER REUNION_GUST REUNION_GUST_PER USA_SEAHGT USA_SEARAD_NE USA_SEARAD_SE USA_SEARAD_SW USA_SEARAD_NW STORM_SPEED STORM_DIR
1966253N14255 1966 72 EP MM HELGA 1966-09-09 12:00:00 TS 14.4000 -105.200 25 hurdat_epa main 472 472 O________OO___ hurdat_epa EP081966 14.4000 -105.200 TD 25 -1 14.4000 -105.200 TC 25 14.4000 -105.200 2 11 264
1966253N14255 1966 72 EP MM HELGA 1966-09-09 15:00:00 TS 14.3416 -105.756 main 510 510 P________PP___ EP081966 14.3352 -105.755 TD 35 0 14.3352 -105.755 TC 35 14.3668 -105.761 2 11 265
1966253N14255 1966 72 EP MM HELGA 1966-09-09 18:00:00 TS 14.3093 -106.302 45 hurdat_epa main 538 538 O________OP___ hurdat_epa EP081966 14.3000 -106.300 TS 45 0 14.3000 -106.300 TC 45 14.3464 -106.308 2 10 269
1966253N14255 1966 72 EP MM HELGA 1966-09-09 21:00:00 TS 14.3265 -106.823 main 569 569 P________PP___ EP081966 14.3199 -106.822 TS 45 0 14.3199 -106.822 TC 45 14.3527 -106.826 2 10 275
1966253N14255 1966 72 EP MM HELGA 1966-09-10 00:00:00 TS 14.4000 -107.300 45 hurdat_epa main 595 595 O________OO___ hurdat_epa EP081966 14.4000 -107.300 TS 45 0 14.4000 -107.300 TC 45 14.4000 -107.300 2 9 283
1966253N14255 1966 72 EP MM HELGA 1966-09-10 03:00:00 TS 14.5276 -107.722 main 609 605 P________PP___ EP081966 14.5349 -107.722 TS 45 0 14.5349 -107.722 TC 45 14.4982 -107.722 2 8 290
1966253N14255 1966 72 EP MM HELGA 1966-09-10 06:00:00 TS 14.6879 -108.100 45 hurdat_epa main 613 613 O________OP___ hurdat_epa EP081966 14.7000 -108.100 TS 45 0 14.7000 -108.100 TC 45 14.6393 -108.102 2 8 293
1966253N14255 1966 72 EP MM HELGA 1966-09-10 09:00:00 TS 14.8361 -108.457 main 630 621 P________PP___ EP081966 14.8424 -108.458 TS 45 0 14.8424 -108.458 TC 45 14.8108 -108.457 2 7 295
1966253N14255 1966 72 EP MM HELGA 1966-09-10 12:00:00 TS 15.0000 -108.800 45 hurdat_epa main 633 632 O________OO___ hurdat_epa EP081966 15.0000 -108.800 TS 45 0 15.0000 -108.800 TC 45 15.0000 -108.800 2 8 298
1966253N14255 1966 72 EP MM HELGA 1966-09-10 15:00:00 TS 15.1943 -109.149 main 639 639 P________PP___ EP081966 15.1924 -109.150 TS 45 0 15.1924 -109.150 TC 45 15.2015 -109.145 2 8 301
1966253N14255 1966 72 EP MM HELGA 1966-09-10 18:00:00 TS 15.4029 -109.497 45 hurdat_epa main 654 654 O________OP___ hurdat_epa EP081966 15.4000 -109.500 TS 45 0 15.4000 -109.500 TC 45 15.4145 -109.485 2 8 302
1966253N14255 1966 72 EP MM HELGA 1966-09-10 21:00:00 TS 15.6160 -109.840 main 661 661 P________PP___ EP081966 15.6149 -109.843 TS 45 0 15.6149 -109.843 TC 45 15.6202 -109.832 2 8 300
1966253N14255 1966 72 EP MM HELGA 1966-09-11 00:00:00 TS 15.8000 -110.200 45 hurdat_epa main 677 677 O________OO___ hurdat_epa EP081966 15.8000 -110.200 TS 45 0 15.8000 -110.200 TC 45 15.8000 -110.200 2 8 292
1966253N14255 1966 72 EP MM HELGA 1966-09-11 03:00:00 TS 15.9087 -110.587 main 703 703 P________PP___ EP081966 15.9149 -110.585 TS 45 0 15.9149 -110.585 TC 45 15.8838 -110.592 2 8 284
1966253N14255 1966 72 EP MM HELGA 1966-09-11 06:00:00 TS 15.9894 -111.001 45 hurdat_epa main 731 731 O________OP___ hurdat_epa EP081966 16.0000 -111.000 TS 45 0 16.0000 -111.000 TC 45 15.9471 -111.007 2 8 280
1966253N14255 1966 72 EP MM HELGA 1966-09-11 09:00:00 TS 16.0573 -111.437 main 760 760 P________PP___ EP081966 16.0624 -111.435 TS 45 0 16.0624 -111.435 TC 45 16.0369 -111.443 2 9 284
1966253N14255 1966 72 EP MM HELGA 1966-09-11 12:00:00 TS 16.2000 -111.900 45 hurdat_epa main 775 755 O________OO___ hurdat_epa EP081966 16.2000 -111.900 TS 45 0 16.2000 -111.900 TC 45 16.2000 -111.900 2 10 296
1966253N14255 1966 72 EP MM HELGA 1966-09-11 15:00:00 TS 16.5048 -112.394 main 758 732 P________PP___ EP081966 16.5049 -112.392 TS 45 0 16.5049 -112.392 TC 45 16.5043 -112.402 2 12 306
1966253N14255 1966 72 EP MM HELGA 1966-09-11 18:00:00 TS 16.8966 -112.904 45 hurdat_epa main 736 719 O________OP___ hurdat_epa EP081966 16.9000 -112.900 TS 45 0 16.9000 -112.900 TC 45 16.8830 -112.921 2 13 309
1966253N14255 1966 72 EP MM HELGA 1966-09-11 21:00:00 TS 17.3050 -113.424 main 719 707 P________PP___ EP081966 17.3075 -113.422 TS 45 0 17.3075 -113.422 TC 45 17.2950 -113.430 2 12 310
1966253N14255 1966 72 EP MM HELGA 1966-09-12 00:00:00 TS 17.7000 -113.900 45 hurdat_epa main 709 701 O________OO___ hurdat_epa EP081966 17.7000 -113.900 TS 45 0 17.7000 -113.900 TC 45 17.7000 -113.900 2 11 311
1966253N14255 1966 72 EP MM HELGA 1966-09-12 03:00:00 TS 18.0112 -114.282 main 707 698 P________PP___ EP081966 18.0073 -114.273 TS 45 0 18.0073 -114.273 TC 45 18.0268 -114.318 2 9 312
1966253N14255 1966 72 EP MM HELGA 1966-09-12 06:00:00 TS 18.3084 -114.618 45 hurdat_epa main 702 700 O________OP___ hurdat_epa EP081966 18.3000 -114.600 TS 45 0 18.3000 -114.600 TC 45 18.3421 -114.691 2 9 314
1966253N14255 1966 72 EP MM HELGA 1966-09-12 09:00:00 TS 18.6403 -114.976 main 707 700 P________PP___ EP081966 18.6350 -114.965 TS 45 0 18.6350 -114.965 TC 45 18.6613 -115.018 2 10 317
1966253N14255 1966 72 EP MM HELGA 1966-09-12 12:00:00 TS 19.0000 -115.300 45 hurdat_epa main 702 691 O________OO___ hurdat_epa EP081966 19.0000 -115.300 TS 45 0 19.0000 -115.300 TC 45 19.0000 -115.300 2 9 323
1966253N14255 1966 72 EP MM HELGA 1966-09-12 15:00:00 TS 19.3872 -115.578 main 691 666 P________PP___ EP081966 19.3924 -115.580 TS 60 0 19.3924 -115.580 TC 60 19.3660 -115.568 2 9 329
1966253N14255 1966 72 EP MM HELGA 1966-09-12 18:00:00 TS 19.7910 -115.798 75 hurdat_epa main 666 643 O________OP___ hurdat_epa EP081966 19.8000 -115.800 HU 75 1 19.8000 -115.800 TC 75 19.7548 -115.790 2 9 335
1966253N14255 1966 72 EP MM HELGA 1966-09-12 21:00:00 TS 20.1872 -115.972 main 643 615 P________PP___ EP081966 20.1925 -115.973 HU 75 1 20.1925 -115.973 TC 75 20.1661 -115.968 2 9 341
1966253N14255 1966 72 EP MM HELGA 1966-09-13 00:00:00 TS 20.6000 -116.100 75 hurdat_epa main 615 589 O________OO___ hurdat_epa EP081966 20.6000 -116.100 HU 75 1 20.6000 -116.100 TC 75 20.6000 -116.100 4 9 345
1966253N14255 1966 72 EP MM HELGA 1966-09-13 03:00:00 TS 21.0411 -116.219 main 589 558 P________PP___ EP081966 21.0350 -116.222 HU 75 1 21.0350 -116.222 TC 75 21.0655 -116.206 4 9 349
1966253N14255 1966 72 EP MM HELGA 1966-09-13 06:00:00 TS 21.5100 -116.294 75 hurdat_epa main 558 522 O________OP___ hurdat_epa EP081966 21.5000 -116.300 HU 75 1 21.5000 -116.300 TC 75 21.5498 -116.268 4 10 355
1966253N14255 1966 72 EP MM HELGA 1966-09-13 09:00:00 TS 22.0129 -116.311 main 522 490 P________PP___ EP081966 22.0075 -116.315 HU 75 1 22.0075 -116.315 TC 75 22.0343 -116.296 4 10 0
1966253N14255 1966 72 EP MM HELGA 1966-09-13 12:00:00 TS 22.5000 -116.300 75 hurdat_epa main 490 467 O________OO___ hurdat_epa EP081966 22.5000 -116.300 HU 75 1 22.5000 -116.300 TC 75 22.5000 -116.300 4 9 0
1966253N14255 1966 72 EP MM HELGA 1966-09-13 15:00:00 TS 22.9220 -116.307 main 467 448 P________PP___ EP081966 22.9150 -116.307 HU 75 1 22.9150 -116.307 TC 75 22.9499 -116.305 4 8 0
1966253N14255 1966 72 EP MM HELGA 1966-09-13 18:00:00 TS 23.3150 -116.298 75 hurdat_epa main 448 431 O________OP___ hurdat_epa EP081966 23.3000 -116.300 HU 75 1 23.3000 -116.300 TC 75 23.3749 -116.288 4 8 3
1966253N14255 1966 72 EP MM HELGA 1966-09-13 21:00:00 TS 23.7305 -116.256 main 431 390 P________PP___ EP081966 23.7225 -116.258 HU 75 1 23.7225 -116.258 TC 75 23.7624 -116.252 4 8 7
1966253N14255 1966 72 EP MM HELGA 1966-09-14 00:00:00 TS 24.1000 -116.200 75 hurdat_epa main 390 360 O________OO___ hurdat_epa EP081966 24.1000 -116.200 HU 75 1 24.1000 -116.200 TC 75 24.1000 -116.200 2 7 8
1966253N14255 1966 72 EP MM HELGA 1966-09-14 03:00:00 TS 24.3774 -116.159 main 360 336 P________PP___ EP081966 24.3800 -116.157 HU 60 0 24.3800 -116.157 TC 60 24.3670 -116.167 2 5 10
1966253N14255 1966 72 EP MM HELGA 1966-09-14 06:00:00 TS 24.5974 -116.103 45 hurdat_epa main 336 312 O________OP___ hurdat_epa EP081966 24.6000 -116.100 TS 45 0 24.6000 -116.100 TC 45 24.5872 -116.117 2 4 17
1966253N14255 1966 72 EP MM HELGA 1966-09-14 09:00:00 TS 24.7917 -116.024 main 312 287 P________PP___ EP081966 24.7925 -116.022 TS 45 0 24.7925 -116.022 TC 45 24.7888 -116.033 2 4 25
1966253N14255 1966 72 EP MM HELGA 1966-09-14 12:00:00 TS 25.0000 -115.900 45 hurdat_epa main 287 248 O________OO___ hurdat_epa EP081966 25.0000 -115.900 TS 45 0 25.0000 -115.900 TC 45 25.0000 -115.900 2 6 28
1966253N14255 1966 72 EP MM HELGA 1966-09-14 15:00:00 TS 25.2901 -115.731 main 248 209 P________PP___ EP081966 25.2925 -115.730 TS 45 0 25.2925 -115.730 TC 45 25.2806 -115.737 2 7 31
1966253N14255 1966 72 EP MM HELGA 1966-09-14 18:00:00 TS 25.5944 -115.504 45 hurdat_epa main 209 170 O________OP___ hurdat_epa EP081966 25.6000 -115.500 TS 45 0 25.6000 -115.500 TC 45 25.5718 -115.520 2 7 38
1966253N14255 1966 72 EP MM HELGA 1966-09-14 21:00:00 TS 25.8683 -115.239 main 165 131 P________PP___ EP081966 25.8724 -115.237 TS 45 0 25.8724 -115.237 TC 45 25.8522 -115.243 2 7 47
1966253N14255 1966 72 EP MM HELGA 1966-09-15 00:00:00 TS 26.1000 -114.900 45 hurdat_epa main 131 92 O________OO___ hurdat_epa EP081966 26.1000 -114.900 TS 45 0 26.1000 -114.900 TC 45 26.1000 -114.900 2 8 59
1966253N14255 1966 72 EP MM HELGA 1966-09-15 03:00:00 TS 26.2718 -114.482 main 92 51 P________PP___ EP081966 26.2650 -114.480 TS 45 0 26.2650 -114.480 TC 45 26.2992 -114.489 2 9 69
1966253N14255 1966 72 EP MM HELGA 1966-09-15 06:00:00 TS 26.4090 -114.004 45 hurdat_epa main 51 14 O________OP___ hurdat_epa EP081966 26.4000 -114.000 TS 45 0 26.4000 -114.000 TC 45 26.4570 -114.023 2 9 72
1966253N14255 1966 72 EP MM HELGA 1966-09-15 09:00:00 TS 26.5675 -113.482 main 14 0 P________PP___ EP081966 26.5652 -113.478 TS 45 0 26.5652 -113.478 TC 45 26.5861 -113.521 2 9 72
1966253N14255 1966 72 EP MM HELGA 1966-09-15 12:00:00 TS 26.7000 -113.000 45 hurdat_epa main 0 0 O________OO___ hurdat_epa EP081966 26.7000 -113.000 TS 45 0 26.7000 -113.000 TC 45 26.7000 -113.000 2 7 75
1966253N14255 1966 72 EP MM HELGA 1966-09-15 15:00:00 TS 26.7572 -112.677 main 0 0 P________P____ EP081966 26.7572 -112.677 TS 35 0 26.7572 -112.677 TC 35 2 5 79
1966253N14255 1966 72 EP MM HELGA 1966-09-15 18:00:00 MX 26.8000 -112.400 25 hurdat_epa main 0 0 O________O____ hurdat_epa EP081966 26.8000 -112.400 TD 25 -1 26.8000 -112.400 25 2 6 76
1966253N14255 1966 72 EP MM HELGA 1966-09-15 21:00:00 MX 26.8925 -112.058 main 0 0 P________P____ EP081966 26.8925 -112.058 TD 25 -1 26.8925 -112.058 25 2 7 72
1966253N14255 1966 72 EP MM HELGA 1966-09-16 00:00:00 MX 27.0000 -111.700 25 hurdat_epa main 22 22 O________O____ hurdat_epa EP081966 27.0000 -111.700 TD 25 -1 27.0000 -111.700 25 7 71
1966253N14255 1966 72 EP MM HELGA 1966-09-16 03:00:00 MX 27.1074 -111.350 main 44 44 P________P____ EP081966 27.1074 -111.350 TD 25 -1 27.1074 -111.350 25 7 72
1966253N14255 1966 72 EP MM HELGA 1966-09-16 06:00:00 MX 27.2000 -111.000 25 hurdat_epa main 45 24 O________O____ hurdat_epa EP081966 27.2000 -111.000 TD 25 -1 27.2000 -111.000 25 6 77
1966253N14255 1966 72 EP MM HELGA 1966-09-16 09:00:00 MX 27.2498 -110.665 main 24 0 P________P____ EP081966 27.2498 -110.665 TD 25 -1 27.2498 -110.665 25 6 81
1966253N14255 1966 72 EP MM HELGA 1966-09-16 12:00:00 MX 27.3000 -110.300 25 hurdat_epa main 0 0 O________O____ hurdat_epa EP081966 27.3000 -110.300 TD 25 -1 27.3000 -110.300 25 7 79
1966253N14255 1966 72 EP MM HELGA 1966-09-16 15:00:00 MX 27.3851 -109.857 main 0 0 P________P____ EP081966 27.3851 -109.857 TD 25 -1 27.3851 -109.857 25 8 76
1966253N14255 1966 72 EP MM HELGA 1966-09-16 18:00:00 MX 27.5000 -109.400 25 hurdat_epa main 0 0 O________O____ hurdat_epa EP081966 27.5000 -109.400 TD 25 -1 27.5000 -109.400 25 8 70
1966253N14255 1966 72 EP MM HELGA 1966-09-16 21:00:00 MX 27.6573 -108.993 main 0 0 P________P____ EP081966 27.6573 -108.993 TD 25 -1 27.6573 -108.993 25 8 67
1966253N14255 1966 72 EP MM HELGA 1966-09-17 00:00:00 MX 27.8000 -108.600 25 hurdat_epa main 0 0 O________O____ hurdat_epa EP081966 27.8000 -108.600 TD 25 -1 27.8000 -108.600 25 7 74
1966253N14255 1966 72 EP MM HELGA 1966-09-17 03:00:00 MX 27.8649 -108.200 main 0 0 P________P____ EP081966 27.8649 -108.200 TD 25 -1 27.8649 -108.200 25 7 82
1966253N14255 1966 72 EP MM HELGA 1966-09-17 06:00:00 MX 27.9000 -107.800 25 hurdat_epa main 0 0 O________O____ hurdat_epa EP081966 27.9000 -107.800 TD 25 -1 27.9000 -107.800 25 7 84
1966253N14255 1966 72 EP MM HELGA 1966-09-17 09:00:00 MX 27.9452 -107.400 main 0 0 P________P____ EP081966 27.9452 -107.400 TD 25 -1 27.9452 -107.400 25 7 82
1966253N14255 1966 72 EP MM HELGA 1966-09-17 12:00:00 MX 28.0000 -107.000 25 hurdat_epa main 0 O________O____ hurdat_epa EP081966 28.0000 -107.000 TD 25 -1 28.0000 -107.000 25 7 81

About IBTrACS Database

This database is a web-friendly format of International Best Track Archive for Climate Stewardship (IBTrACS), a global best track data archive curated by NOAA dating back to 1842.

Updated: 2021-10-08